sensor_id;sensor_type;location;lat;lon;timestamp;P1;durP1;ratioP1;P2;durP2;ratioP2
12840;SDS011;6487;48.626;12.486;2023-08-24T00:00:43;3.97;;;3.60;;
12840;SDS011;6487;48.626;12.486;2023-08-24T00:03:12;7.50;;;4.27;;
12840;SDS011;6487;48.626;12.486;2023-08-24T00:05:40;5.53;;;5.03;;
12840;SDS011;6487;48.626;12.486;2023-08-24T00:08:09;5.03;;;4.63;;
12840;SDS011;6487;48.626;12.486;2023-08-24T00:10:42;4.13;;;3.83;;
12840;SDS011;6487;48.626;12.486;2023-08-24T00:13:12;5.20;;;4.63;;
12840;SDS011;6487;48.626;12.486;2023-08-24T00:15:41;4.67;;;4.27;;
12840;SDS011;6487;48.626;12.486;2023-08-24T00:18:13;5.20;;;4.73;;
12840;SDS011;6487;48.626;12.486;2023-08-24T00:20:41;7.00;;;5.50;;
12840;SDS011;6487;48.626;12.486;2023-08-24T00:23:09;5.60;;;5.10;;
12840;SDS011;6487;48.626;12.486;2023-08-24T00:25:42;8.47;;;4.70;;
12840;SDS011;6487;48.626;12.486;2023-08-24T00:28:11;5.07;;;4.47;;
12840;SDS011;6487;48.626;12.486;2023-08-24T00:30:39;9.83;;;4.43;;
12840;SDS011;6487;48.626;12.486;2023-08-24T00:33:07;4.90;;;4.50;;
12840;SDS011;6487;48.626;12.486;2023-08-24T00:35:41;4.53;;;4.00;;
12840;SDS011;6487;48.626;12.486;2023-08-24T00:38:12;6.37;;;4.13;;
12840;SDS011;6487;48.626;12.486;2023-08-24T00:40:45;5.70;;;4.37;;
12840;SDS011;6487;48.626;12.486;2023-08-24T00:43:19;5.33;;;4.23;;
12840;SDS011;6487;48.626;12.486;2023-08-24T00:45:54;4.67;;;4.13;;
12840;SDS011;6487;48.626;12.486;2023-08-24T00:48:24;4.50;;;4.10;;
12840;SDS011;6487;48.626;12.486;2023-08-24T00:50:57;4.40;;;4.00;;
12840;SDS011;6487;48.626;12.486;2023-08-24T00:53:28;5.07;;;4.37;;
12840;SDS011;6487;48.626;12.486;2023-08-24T00:56:01;4.30;;;3.90;;
12840;SDS011;6487;48.626;12.486;2023-08-24T00:58:31;4.23;;;3.83;;
12840;SDS011;6487;48.626;12.486;2023-08-24T01:01:00;4.97;;;3.97;;
12840;SDS011;6487;48.626;12.486;2023-08-24T01:03:29;4.40;;;3.93;;
12840;SDS011;6487;48.626;12.486;2023-08-24T01:05:58;8.60;;;4.30;;
12840;SDS011;6487;48.626;12.486;2023-08-24T01:08:27;4.13;;;3.83;;
12840;SDS011;6487;48.626;12.486;2023-08-24T01:10:58;4.57;;;4.20;;
12840;SDS011;6487;48.626;12.486;2023-08-24T01:13:34;4.33;;;4.00;;
12840;SDS011;6487;48.626;12.486;2023-08-24T01:16:14;4.13;;;3.60;;
12840;SDS011;6487;48.626;12.486;2023-08-24T01:18:47;4.37;;;3.90;;
12840;SDS011;6487;48.626;12.486;2023-08-24T01:21:17;4.03;;;3.73;;
12840;SDS011;6487;48.626;12.486;2023-08-24T01:23:48;4.37;;;3.97;;
12840;SDS011;6487;48.626;12.486;2023-08-24T01:26:32;4.97;;;4.17;;
12840;SDS011;6487;48.626;12.486;2023-08-24T01:29:01;4.03;;;3.73;;
12840;SDS011;6487;48.626;12.486;2023-08-24T01:31:32;3.67;;;3.37;;
12840;SDS011;6487;48.626;12.486;2023-08-24T01:34:00;4.57;;;3.70;;
12840;SDS011;6487;48.626;12.486;2023-08-24T01:36:29;4.20;;;3.90;;
12840;SDS011;6487;48.626;12.486;2023-08-24T01:38:58;4.60;;;3.57;;
12840;SDS011;6487;48.626;12.486;2023-08-24T01:41:35;5.93;;;3.97;;
12840;SDS011;6487;48.626;12.486;2023-08-24T01:44:06;5.87;;;4.00;;
12840;SDS011;6487;48.626;12.486;2023-08-24T01:46:36;5.57;;;4.07;;
12840;SDS011;6487;48.626;12.486;2023-08-24T01:49:07;6.50;;;3.93;;
12840;SDS011;6487;48.626;12.486;2023-08-24T01:51:40;4.60;;;3.90;;
12840;SDS011;6487;48.626;12.486;2023-08-24T01:54:09;4.27;;;3.87;;
12840;SDS011;6487;48.626;12.486;2023-08-24T01:56:39;5.80;;;3.97;;
12840;SDS011;6487;48.626;12.486;2023-08-24T01:59:08;5.20;;;4.00;;
12840;SDS011;6487;48.626;12.486;2023-08-24T02:01:36;4.13;;;3.73;;
12840;SDS011;6487;48.626;12.486;2023-08-24T02:04:07;4.17;;;3.80;;
12840;SDS011;6487;48.626;12.486;2023-08-24T02:06:36;4.03;;;3.70;;
12840;SDS011;6487;48.626;12.486;2023-08-24T02:09:04;4.20;;;3.77;;
12840;SDS011;6487;48.626;12.486;2023-08-24T02:11:35;4.33;;;3.90;;
12840;SDS011;6487;48.626;12.486;2023-08-24T02:14:05;4.40;;;4.10;;
12840;SDS011;6487;48.626;12.486;2023-08-24T02:16:33;4.70;;;4.30;;
12840;SDS011;6487;48.626;12.486;2023-08-24T02:19:03;6.40;;;3.70;;
12840;SDS011;6487;48.626;12.486;2023-08-24T02:21:31;5.97;;;4.60;;
12840;SDS011;6487;48.626;12.486;2023-08-24T02:24:03;4.57;;;4.17;;
12840;SDS011;6487;48.626;12.486;2023-08-24T02:26:35;6.67;;;4.30;;
12840;SDS011;6487;48.626;12.486;2023-08-24T02:29:05;4.57;;;3.60;;
12840;SDS011;6487;48.626;12.486;2023-08-24T02:31:33;4.83;;;4.40;;
12840;SDS011;6487;48.626;12.486;2023-08-24T02:34:01;6.43;;;4.20;;
12840;SDS011;6487;48.626;12.486;2023-08-24T02:36:30;4.37;;;3.97;;
12840;SDS011;6487;48.626;12.486;2023-08-24T02:39:03;5.00;;;4.60;;
12840;SDS011;6487;48.626;12.486;2023-08-24T02:41:35;4.80;;;4.40;;
12840;SDS011;6487;48.626;12.486;2023-08-24T02:44:05;4.50;;;4.07;;
12840;SDS011;6487;48.626;12.486;2023-08-24T02:46:35;5.57;;;4.43;;
12840;SDS011;6487;48.626;12.486;2023-08-24T02:49:03;6.77;;;4.13;;
12840;SDS011;6487;48.626;12.486;2023-08-24T02:51:34;4.63;;;4.23;;
12840;SDS011;6487;48.626;12.486;2023-08-24T02:54:03;6.97;;;4.40;;
12840;SDS011;6487;48.626;12.486;2023-08-24T02:56:32;4.93;;;4.53;;
12840;SDS011;6487;48.626;12.486;2023-08-24T02:59:04;4.47;;;4.07;;
12840;SDS011;6487;48.626;12.486;2023-08-24T03:01:35;4.73;;;4.33;;
12840;SDS011;6487;48.626;12.486;2023-08-24T03:04:05;5.43;;;4.10;;
12840;SDS011;6487;48.626;12.486;2023-08-24T03:06:33;5.17;;;3.77;;
12840;SDS011;6487;48.626;12.486;2023-08-24T03:09:04;5.03;;;4.07;;
12840;SDS011;6487;48.626;12.486;2023-08-24T03:11:39;5.50;;;3.80;;
12840;SDS011;6487;48.626;12.486;2023-08-24T03:14:09;4.57;;;4.03;;
12840;SDS011;6487;48.626;12.486;2023-08-24T03:16:38;3.90;;;3.50;;
12840;SDS011;6487;48.626;12.486;2023-08-24T03:19:06;5.53;;;4.60;;
12840;SDS011;6487;48.626;12.486;2023-08-24T03:21:35;4.17;;;3.87;;
12840;SDS011;6487;48.626;12.486;2023-08-24T03:24:03;4.40;;;4.00;;
12840;SDS011;6487;48.626;12.486;2023-08-24T03:26:32;4.67;;;4.03;;
12840;SDS011;6487;48.626;12.486;2023-08-24T03:29:01;5.50;;;3.83;;
12840;SDS011;6487;48.626;12.486;2023-08-24T03:31:31;4.83;;;3.77;;
12840;SDS011;6487;48.626;12.486;2023-08-24T03:33:59;4.50;;;3.70;;
12840;SDS011;6487;48.626;12.486;2023-08-24T03:36:31;6.67;;;3.67;;
12840;SDS011;6487;48.626;12.486;2023-08-24T03:38:59;4.20;;;3.80;;
12840;SDS011;6487;48.626;12.486;2023-08-24T03:41:28;4.57;;;4.13;;
12840;SDS011;6487;48.626;12.486;2023-08-24T03:43:56;5.43;;;3.90;;
12840;SDS011;6487;48.626;12.486;2023-08-24T03:46:28;5.73;;;4.23;;
12840;SDS011;6487;48.626;12.486;2023-08-24T03:48:58;4.57;;;4.20;;
12840;SDS011;6487;48.626;12.486;2023-08-24T03:51:26;7.07;;;4.00;;
12840;SDS011;6487;48.626;12.486;2023-08-24T03:53:55;4.33;;;3.93;;
12840;SDS011;6487;48.626;12.486;2023-08-24T03:56:23;4.80;;;4.30;;
12840;SDS011;6487;48.626;12.486;2023-08-24T03:58:52;5.40;;;4.30;;
12840;SDS011;6487;48.626;12.486;2023-08-24T04:01:20;5.73;;;4.43;;
12840;SDS011;6487;48.626;12.486;2023-08-24T04:03:49;4.77;;;4.37;;
12840;SDS011;6487;48.626;12.486;2023-08-24T04:06:22;4.93;;;4.33;;
12840;SDS011;6487;48.626;12.486;2023-08-24T04:08:54;4.93;;;4.43;;
12840;SDS011;6487;48.626;12.486;2023-08-24T04:11:22;6.07;;;4.30;;
12840;SDS011;6487;48.626;12.486;2023-08-24T04:13:53;6.47;;;5.20;;
12840;SDS011;6487;48.626;12.486;2023-08-24T04:16:22;4.87;;;4.20;;
12840;SDS011;6487;48.626;12.486;2023-08-24T04:18:50;6.80;;;4.37;;
12840;SDS011;6487;48.626;12.486;2023-08-24T04:21:19;5.13;;;4.60;;
12840;SDS011;6487;48.626;12.486;2023-08-24T04:23:48;5.60;;;4.80;;
12840;SDS011;6487;48.626;12.486;2023-08-24T04:26:17;8.20;;;4.63;;
12840;SDS011;6487;48.626;12.486;2023-08-24T04:28:45;7.93;;;4.63;;
12840;SDS011;6487;48.626;12.486;2023-08-24T04:31:13;6.10;;;4.80;;
12840;SDS011;6487;48.626;12.486;2023-08-24T04:33:42;7.40;;;4.63;;
12840;SDS011;6487;48.626;12.486;2023-08-24T04:36:10;6.80;;;5.00;;
12840;SDS011;6487;48.626;12.486;2023-08-24T04:38:39;5.10;;;4.70;;
12840;SDS011;6487;48.626;12.486;2023-08-24T04:41:14;4.73;;;4.33;;
12840;SDS011;6487;48.626;12.486;2023-08-24T04:43:42;6.37;;;4.60;;
12840;SDS011;6487;48.626;12.486;2023-08-24T04:46:10;5.07;;;4.63;;
12840;SDS011;6487;48.626;12.486;2023-08-24T04:48:41;4.90;;;4.50;;
12840;SDS011;6487;48.626;12.486;2023-08-24T04:51:10;4.63;;;4.23;;
12840;SDS011;6487;48.626;12.486;2023-08-24T04:53:38;5.20;;;4.70;;
12840;SDS011;6487;48.626;12.486;2023-08-24T04:56:06;5.70;;;5.20;;
12840;SDS011;6487;48.626;12.486;2023-08-24T04:58:36;4.80;;;4.40;;
12840;SDS011;6487;48.626;12.486;2023-08-24T05:01:04;15.23;;;4.87;;
12840;SDS011;6487;48.626;12.486;2023-08-24T05:03:33;5.27;;;4.53;;
12840;SDS011;6487;48.626;12.486;2023-08-24T05:06:01;4.80;;;4.50;;
12840;SDS011;6487;48.626;12.486;2023-08-24T05:08:30;7.10;;;4.70;;
12840;SDS011;6487;48.626;12.486;2023-08-24T05:10:59;5.80;;;4.63;;
12840;SDS011;6487;48.626;12.486;2023-08-24T05:13:27;4.63;;;4.23;;
12840;SDS011;6487;48.626;12.486;2023-08-24T05:16:00;5.93;;;4.70;;
12840;SDS011;6487;48.626;12.486;2023-08-24T05:18:28;5.50;;;4.50;;
12840;SDS011;6487;48.626;12.486;2023-08-24T05:20:57;5.73;;;4.83;;
12840;SDS011;6487;48.626;12.486;2023-08-24T05:23:25;5.03;;;4.53;;
12840;SDS011;6487;48.626;12.486;2023-08-24T05:25:53;4.57;;;4.17;;
12840;SDS011;6487;48.626;12.486;2023-08-24T05:28:22;6.27;;;4.80;;
12840;SDS011;6487;48.626;12.486;2023-08-24T05:30:51;5.50;;;5.03;;
12840;SDS011;6487;48.626;12.486;2023-08-24T05:33:21;7.13;;;4.40;;
12840;SDS011;6487;48.626;12.486;2023-08-24T05:35:51;5.23;;;4.63;;
12840;SDS011;6487;48.626;12.486;2023-08-24T05:38:20;5.53;;;4.77;;
12840;SDS011;6487;48.626;12.486;2023-08-24T05:40:48;4.67;;;4.27;;
12840;SDS011;6487;48.626;12.486;2023-08-24T05:43:17;5.13;;;4.67;;
12840;SDS011;6487;48.626;12.486;2023-08-24T05:45:46;5.20;;;4.77;;
12840;SDS011;6487;48.626;12.486;2023-08-24T05:48:16;5.43;;;4.50;;
12840;SDS011;6487;48.626;12.486;2023-08-24T05:50:46;5.60;;;4.67;;
12840;SDS011;6487;48.626;12.486;2023-08-24T05:53:15;5.13;;;4.63;;
12840;SDS011;6487;48.626;12.486;2023-08-24T05:55:43;5.73;;;4.67;;
12840;SDS011;6487;48.626;12.486;2023-08-24T05:58:11;4.57;;;4.23;;
12840;SDS011;6487;48.626;12.486;2023-08-24T06:00:39;7.80;;;5.43;;
12840;SDS011;6487;48.626;12.486;2023-08-24T06:03:08;6.97;;;5.03;;
12840;SDS011;6487;48.626;12.486;2023-08-24T06:05:39;4.80;;;4.40;;
12840;SDS011;6487;48.626;12.486;2023-08-24T06:08:09;5.00;;;4.60;;
12840;SDS011;6487;48.626;12.486;2023-08-24T06:10:37;5.87;;;5.37;;
12840;SDS011;6487;48.626;12.486;2023-08-24T06:13:06;5.60;;;5.10;;
12840;SDS011;6487;48.626;12.486;2023-08-24T06:15:34;5.70;;;5.20;;
12840;SDS011;6487;48.626;12.486;2023-08-24T06:18:03;8.73;;;5.73;;
12840;SDS011;6487;48.626;12.486;2023-08-24T06:20:32;9.43;;;5.07;;
12840;SDS011;6487;48.626;12.486;2023-08-24T06:23:00;5.70;;;5.17;;
12840;SDS011;6487;48.626;12.486;2023-08-24T06:25:30;6.83;;;5.73;;
12840;SDS011;6487;48.626;12.486;2023-08-24T06:27:58;5.97;;;5.40;;
12840;SDS011;6487;48.626;12.486;2023-08-24T06:30:30;6.77;;;5.80;;
12840;SDS011;6487;48.626;12.486;2023-08-24T06:33:03;5.90;;;5.33;;
12840;SDS011;6487;48.626;12.486;2023-08-24T06:35:32;6.63;;;6.13;;
12840;SDS011;6487;48.626;12.486;2023-08-24T06:38:01;7.10;;;6.50;;
12840;SDS011;6487;48.626;12.486;2023-08-24T06:40:32;8.70;;;7.97;;
12840;SDS011;6487;48.626;12.486;2023-08-24T06:43:00;8.83;;;7.93;;
12840;SDS011;6487;48.626;12.486;2023-08-24T06:45:28;9.40;;;8.33;;
12840;SDS011;6487;48.626;12.486;2023-08-24T06:47:57;9.17;;;8.27;;
12840;SDS011;6487;48.626;12.486;2023-08-24T06:50:25;8.63;;;7.83;;
12840;SDS011;6487;48.626;12.486;2023-08-24T06:52:53;8.87;;;8.10;;
12840;SDS011;6487;48.626;12.486;2023-08-24T06:55:22;9.70;;;7.50;;
12840;SDS011;6487;48.626;12.486;2023-08-24T06:57:51;8.13;;;7.50;;
12840;SDS011;6487;48.626;12.486;2023-08-24T07:00:20;7.70;;;7.07;;
12840;SDS011;6487;48.626;12.486;2023-08-24T07:02:51;7.27;;;6.57;;
12840;SDS011;6487;48.626;12.486;2023-08-24T07:05:19;7.70;;;5.97;;
12840;SDS011;6487;48.626;12.486;2023-08-24T07:07:49;7.17;;;6.30;;
12840;SDS011;6487;48.626;12.486;2023-08-24T07:10:18;7.10;;;5.73;;
12840;SDS011;6487;48.626;12.486;2023-08-24T07:12:47;6.67;;;6.00;;
12840;SDS011;6487;48.626;12.486;2023-08-24T07:15:17;7.67;;;6.10;;
12840;SDS011;6487;48.626;12.486;2023-08-24T07:17:45;6.97;;;5.93;;
12840;SDS011;6487;48.626;12.486;2023-08-24T07:20:14;6.03;;;5.43;;
12840;SDS011;6487;48.626;12.486;2023-08-24T07:22:42;5.87;;;5.30;;
12840;SDS011;6487;48.626;12.486;2023-08-24T07:25:11;7.00;;;5.90;;
12840;SDS011;6487;48.626;12.486;2023-08-24T07:27:41;6.43;;;5.80;;
12840;SDS011;6487;48.626;12.486;2023-08-24T07:30:10;8.43;;;5.73;;
12840;SDS011;6487;48.626;12.486;2023-08-24T07:32:59;9.53;;;5.53;;
12840;SDS011;6487;48.626;12.486;2023-08-24T07:35:29;5.77;;;5.27;;
12840;SDS011;6487;48.626;12.486;2023-08-24T07:37:58;5.87;;;4.70;;
12840;SDS011;6487;48.626;12.486;2023-08-24T07:40:27;5.13;;;4.63;;
12840;SDS011;6487;48.626;12.486;2023-08-24T07:42:56;6.03;;;4.67;;
12840;SDS011;6487;48.626;12.486;2023-08-24T07:45:24;6.70;;;5.83;;
12840;SDS011;6487;48.626;12.486;2023-08-24T07:47:53;5.70;;;4.90;;
12840;SDS011;6487;48.626;12.486;2023-08-24T07:50:23;5.70;;;4.85;;
12840;SDS011;6487;48.626;12.486;2023-08-24T07:52:51;5.80;;;5.23;;
12840;SDS011;6487;48.626;12.486;2023-08-24T07:55:23;5.70;;;5.20;;
12840;SDS011;6487;48.626;12.486;2023-08-24T07:57:52;5.82;;;5.22;;
12840;SDS011;6487;48.626;12.486;2023-08-24T08:00:20;5.13;;;4.32;;
12840;SDS011;6487;48.626;12.486;2023-08-24T08:02:50;5.95;;;4.78;;
12840;SDS011;6487;48.626;12.486;2023-08-24T08:05:19;8.07;;;5.38;;
12840;SDS011;6487;48.626;12.486;2023-08-24T08:07:50;5.88;;;4.80;;
12840;SDS011;6487;48.626;12.486;2023-08-24T08:10:19;5.07;;;4.57;;
12840;SDS011;6487;48.626;12.486;2023-08-24T08:12:48;5.68;;;4.53;;
12840;SDS011;6487;48.626;12.486;2023-08-24T08:15:16;4.80;;;4.30;;
12840;SDS011;6487;48.626;12.486;2023-08-24T08:17:45;10.25;;;4.35;;
12840;SDS011;6487;48.626;12.486;2023-08-24T08:20:14;7.25;;;5.03;;
12840;SDS011;6487;48.626;12.486;2023-08-24T08:22:43;4.95;;;4.50;;
12840;SDS011;6487;48.626;12.486;2023-08-24T08:25:13;9.75;;;4.53;;
12840;SDS011;6487;48.626;12.486;2023-08-24T08:27:44;5.55;;;4.50;;
12840;SDS011;6487;48.626;12.486;2023-08-24T08:30:12;4.60;;;4.20;;
12840;SDS011;6487;48.626;12.486;2023-08-24T08:32:42;5.80;;;4.90;;
12840;SDS011;6487;48.626;12.486;2023-08-24T08:35:10;5.05;;;4.45;;
12840;SDS011;6487;48.626;12.486;2023-08-24T08:37:38;5.47;;;4.97;;
12840;SDS011;6487;48.626;12.486;2023-08-24T08:40:09;7.57;;;4.82;;
12840;SDS011;6487;48.626;12.486;2023-08-24T08:42:40;5.22;;;4.72;;
12840;SDS011;6487;48.626;12.486;2023-08-24T08:45:09;6.55;;;5.00;;
12840;SDS011;6487;48.626;12.486;2023-08-24T08:47:38;5.32;;;4.75;;
12840;SDS011;6487;48.626;12.486;2023-08-24T08:50:08;5.45;;;4.50;;
12840;SDS011;6487;48.626;12.486;2023-08-24T08:52:38;6.00;;;4.90;;
12840;SDS011;6487;48.626;12.486;2023-08-24T08:55:07;5.78;;;4.38;;
12840;SDS011;6487;48.626;12.486;2023-08-24T08:57:37;5.03;;;4.20;;
12840;SDS011;6487;48.626;12.486;2023-08-24T09:00:10;4.50;;;4.13;;
12840;SDS011;6487;48.626;12.486;2023-08-24T09:02:40;4.63;;;4.22;;
12840;SDS011;6487;48.626;12.486;2023-08-24T09:05:12;5.43;;;4.28;;
12840;SDS011;6487;48.626;12.486;2023-08-24T09:07:42;4.90;;;4.25;;
12840;SDS011;6487;48.626;12.486;2023-08-24T09:10:10;5.00;;;4.05;;
12840;SDS011;6487;48.626;12.486;2023-08-24T09:12:40;4.63;;;4.22;;
12840;SDS011;6487;48.626;12.486;2023-08-24T09:15:09;5.00;;;4.53;;
12840;SDS011;6487;48.626;12.486;2023-08-24T09:17:41;6.00;;;4.20;;
12840;SDS011;6487;48.626;12.486;2023-08-24T09:20:11;6.20;;;3.95;;
12840;SDS011;6487;48.626;12.486;2023-08-24T09:22:42;5.30;;;3.47;;
12840;SDS011;6487;48.626;12.486;2023-08-24T09:25:11;3.67;;;3.38;;
12840;SDS011;6487;48.626;12.486;2023-08-24T09:27:41;5.63;;;4.13;;
12840;SDS011;6487;48.626;12.486;2023-08-24T09:30:10;4.60;;;4.20;;
12840;SDS011;6487;48.626;12.486;2023-08-24T09:32:39;7.07;;;4.50;;
12840;SDS011;6487;48.626;12.486;2023-08-24T09:35:09;4.22;;;3.90;;
12840;SDS011;6487;48.626;12.486;2023-08-24T09:37:37;3.90;;;3.60;;
12840;SDS011;6487;48.626;12.486;2023-08-24T09:40:09;3.92;;;3.55;;
12840;SDS011;6487;48.626;12.486;2023-08-24T09:42:38;3.85;;;3.38;;
12840;SDS011;6487;48.626;12.486;2023-08-24T09:45:11;4.80;;;3.25;;
12840;SDS011;6487;48.626;12.486;2023-08-24T09:47:44;4.00;;;3.20;;
12840;SDS011;6487;48.626;12.486;2023-08-24T09:50:16;8.07;;;3.47;;
12840;SDS011;6487;48.626;12.486;2023-08-24T09:52:45;5.25;;;3.40;;
12840;SDS011;6487;48.626;12.486;2023-08-24T09:55:18;4.18;;;3.60;;
12840;SDS011;6487;48.626;12.486;2023-08-24T09:57:51;4.75;;;3.47;;
12840;SDS011;6487;48.626;12.486;2023-08-24T10:00:23;6.07;;;3.55;;
12840;SDS011;6487;48.626;12.486;2023-08-24T10:02:53;4.93;;;3.15;;
12840;SDS011;6487;48.626;12.486;2023-08-24T10:05:23;4.07;;;3.65;;
12840;SDS011;6487;48.626;12.486;2023-08-24T10:07:55;4.20;;;3.30;;
12840;SDS011;6487;48.626;12.486;2023-08-24T10:10:24;5.47;;;3.40;;
12840;SDS011;6487;48.626;12.486;2023-08-24T10:12:57;5.15;;;3.25;;
12840;SDS011;6487;48.626;12.486;2023-08-24T10:15:34;5.70;;;3.50;;
12840;SDS011;6487;48.626;12.486;2023-08-24T10:18:13;3.88;;;3.47;;
12840;SDS011;6487;48.626;12.486;2023-08-24T10:20:43;3.55;;;3.25;;
12840;SDS011;6487;48.626;12.486;2023-08-24T10:23:15;7.60;;;3.65;;
12840;SDS011;6487;48.626;12.486;2023-08-24T10:25:44;3.72;;;3.13;;
12840;SDS011;6487;48.626;12.486;2023-08-24T10:28:16;5.53;;;3.53;;
12840;SDS011;6487;48.626;12.486;2023-08-24T10:30:47;3.55;;;3.03;;
12840;SDS011;6487;48.626;12.486;2023-08-24T10:33:17;4.20;;;3.22;;
12840;SDS011;6487;48.626;12.486;2023-08-24T10:35:47;6.68;;;3.95;;
12840;SDS011;6487;48.626;12.486;2023-08-24T10:38:22;4.80;;;3.10;;
12840;SDS011;6487;48.626;12.486;2023-08-24T10:40:52;4.15;;;3.45;;
12840;SDS011;6487;48.626;12.486;2023-08-24T10:43:23;3.55;;;3.25;;
12840;SDS011;6487;48.626;12.486;2023-08-24T10:45:55;3.90;;;3.42;;
12840;SDS011;6487;48.626;12.486;2023-08-24T10:48:26;3.42;;;3.22;;
12840;SDS011;6487;48.626;12.486;2023-08-24T10:53:51;4.45;;;3.85;;
12840;SDS011;6487;48.626;12.486;2023-08-24T10:56:29;4.03;;;3.63;;
12840;SDS011;6487;48.626;12.486;2023-08-24T10:59:13;5.03;;;3.40;;
12840;SDS011;6487;48.626;12.486;2023-08-24T11:01:54;3.60;;;3.30;;
12840;SDS011;6487;48.626;12.486;2023-08-24T11:04:24;4.38;;;3.65;;
12840;SDS011;6487;48.626;12.486;2023-08-24T11:06:56;3.83;;;3.20;;
12840;SDS011;6487;48.626;12.486;2023-08-24T11:09:44;4.78;;;3.60;;
12840;SDS011;6487;48.626;12.486;2023-08-24T11:12:14;3.80;;;3.50;;
12840;SDS011;6487;48.626;12.486;2023-08-24T11:14:49;3.70;;;3.40;;
12840;SDS011;6487;48.626;12.486;2023-08-24T11:17:25;3.75;;;3.40;;
12840;SDS011;6487;48.626;12.486;2023-08-24T11:20:00;4.40;;;3.80;;
12840;SDS011;6487;48.626;12.486;2023-08-24T11:22:32;6.55;;;3.40;;
12840;SDS011;6487;48.626;12.486;2023-08-24T11:25:00;3.47;;;3.28;;
12840;SDS011;6487;48.626;12.486;2023-08-24T11:27:29;3.85;;;3.53;;
12840;SDS011;6487;48.626;12.486;2023-08-24T11:30:01;4.50;;;3.33;;
12840;SDS011;6487;48.626;12.486;2023-08-24T11:32:31;5.97;;;3.95;;
12840;SDS011;6487;48.626;12.486;2023-08-24T11:35:00;5.97;;;3.92;;
12840;SDS011;6487;48.626;12.486;2023-08-24T11:37:29;4.32;;;3.90;;
12840;SDS011;6487;48.626;12.486;2023-08-24T11:39:57;5.40;;;3.42;;
12840;SDS011;6487;48.626;12.486;2023-08-24T11:42:26;4.00;;;3.70;;
12840;SDS011;6487;48.626;12.486;2023-08-24T11:45:08;3.42;;;3.17;;
12840;SDS011;6487;48.626;12.486;2023-08-24T11:47:40;5.80;;;3.67;;
12840;SDS011;6487;48.626;12.486;2023-08-24T11:50:08;3.90;;;3.60;;
12840;SDS011;6487;48.626;12.486;2023-08-24T11:52:38;4.50;;;3.28;;
12840;SDS011;6487;48.626;12.486;2023-08-24T11:55:07;6.13;;;3.10;;
12840;SDS011;6487;48.626;12.486;2023-08-24T11:57:37;4.35;;;3.22;;
12840;SDS011;6487;48.626;12.486;2023-08-24T12:00:07;6.07;;;3.33;;
12840;SDS011;6487;48.626;12.486;2023-08-24T12:02:40;5.85;;;3.50;;
12840;SDS011;6487;48.626;12.486;2023-08-24T12:05:19;4.43;;;3.65;;
12840;SDS011;6487;48.626;12.486;2023-08-24T12:07:50;6.28;;;4.00;;
12840;SDS011;6487;48.626;12.486;2023-08-24T12:10:20;4.30;;;3.90;;
12840;SDS011;6487;48.626;12.486;2023-08-24T12:12:49;3.70;;;3.40;;
12840;SDS011;6487;48.626;12.486;2023-08-24T12:15:31;3.70;;;3.40;;
12840;SDS011;6487;48.626;12.486;2023-08-24T12:18:09;3.58;;;3.05;;
12840;SDS011;6487;48.626;12.486;2023-08-24T12:20:39;4.85;;;3.15;;
12840;SDS011;6487;48.626;12.486;2023-08-24T12:23:09;5.30;;;3.83;;
12840;SDS011;6487;48.626;12.486;2023-08-24T12:25:39;4.68;;;3.42;;
12840;SDS011;6487;48.626;12.486;2023-08-24T12:28:11;3.92;;;3.50;;
12840;SDS011;6487;48.626;12.486;2023-08-24T12:30:46;5.03;;;3.70;;
12840;SDS011;6487;48.626;12.486;2023-08-24T12:33:23;4.40;;;4.00;;
12840;SDS011;6487;48.626;12.486;2023-08-24T12:35:52;4.50;;;4.10;;
12840;SDS011;6487;48.626;12.486;2023-08-24T12:38:22;4.32;;;3.25;;
12840;SDS011;6487;48.626;12.486;2023-08-24T12:40:51;3.63;;;3.33;;
12840;SDS011;6487;48.626;12.486;2023-08-24T12:43:20;4.32;;;3.92;;
12840;SDS011;6487;48.626;12.486;2023-08-24T12:45:50;6.93;;;3.92;;
12840;SDS011;6487;48.626;12.486;2023-08-24T12:48:18;4.32;;;3.60;;
12840;SDS011;6487;48.626;12.486;2023-08-24T12:50:47;3.80;;;3.45;;
12840;SDS011;6487;48.626;12.486;2023-08-24T12:53:15;6.25;;;4.10;;
12840;SDS011;6487;48.626;12.486;2023-08-24T12:55:43;5.03;;;3.70;;
12840;SDS011;6487;48.626;12.486;2023-08-24T12:58:12;4.43;;;3.50;;
12840;SDS011;6487;48.626;12.486;2023-08-24T13:00:40;4.22;;;3.83;;
12840;SDS011;6487;48.626;12.486;2023-08-24T13:03:10;4.22;;;3.83;;
12840;SDS011;6487;48.626;12.486;2023-08-24T13:05:41;4.15;;;3.60;;
12840;SDS011;6487;48.626;12.486;2023-08-24T13:08:10;7.72;;;4.15;;
12840;SDS011;6487;48.626;12.486;2023-08-24T13:10:38;6.72;;;3.40;;
12840;SDS011;6487;48.626;12.486;2023-08-24T13:13:07;6.53;;;3.33;;
12840;SDS011;6487;48.626;12.486;2023-08-24T13:15:38;8.45;;;3.72;;
12840;SDS011;6487;48.626;12.486;2023-08-24T13:18:07;5.25;;;3.83;;
12840;SDS011;6487;48.626;12.486;2023-08-24T13:20:37;5.50;;;3.47;;
12840;SDS011;6487;48.626;12.486;2023-08-24T13:23:05;4.00;;;3.30;;
12840;SDS011;6487;48.626;12.486;2023-08-24T13:25:34;3.72;;;3.45;;
12840;SDS011;6487;48.626;12.486;2023-08-24T13:28:02;3.85;;;3.55;;
12840;SDS011;6487;48.626;12.486;2023-08-24T13:30:31;4.15;;;3.60;;
12840;SDS011;6487;48.626;12.486;2023-08-24T13:33:00;6.93;;;3.95;;
12840;SDS011;6487;48.626;12.486;2023-08-24T13:35:29;8.77;;;3.90;;
12840;SDS011;6487;48.626;12.486;2023-08-24T13:37:58;4.40;;;3.92;;
12840;SDS011;6487;48.626;12.486;2023-08-24T13:40:27;4.15;;;3.72;;
12840;SDS011;6487;48.626;12.486;2023-08-24T13:42:55;7.65;;;3.38;;
12840;SDS011;6487;48.626;12.486;2023-08-24T13:45:24;6.32;;;3.83;;
12840;SDS011;6487;48.626;12.486;2023-08-24T13:47:52;6.78;;;3.70;;
12840;SDS011;6487;48.626;12.486;2023-08-24T13:50:21;4.68;;;3.80;;
12840;SDS011;6487;48.626;12.486;2023-08-24T13:52:49;10.73;;;4.32;;
12840;SDS011;6487;48.626;12.486;2023-08-24T13:55:20;3.92;;;3.63;;
12840;SDS011;6487;48.626;12.486;2023-08-24T13:57:48;5.93;;;3.67;;
12840;SDS011;6487;48.626;12.486;2023-08-24T14:00:17;5.03;;;3.53;;
12840;SDS011;6487;48.626;12.486;2023-08-24T14:02:46;6.13;;;3.72;;
12840;SDS011;6487;48.626;12.486;2023-08-24T14:05:15;5.50;;;3.45;;
12840;SDS011;6487;48.626;12.486;2023-08-24T14:07:43;4.15;;;3.47;;
12840;SDS011;6487;48.626;12.486;2023-08-24T14:10:12;6.10;;;3.63;;
12840;SDS011;6487;48.626;12.486;2023-08-24T14:12:41;4.57;;;3.65;;
12840;SDS011;6487;48.626;12.486;2023-08-24T14:15:10;7.85;;;3.70;;
12840;SDS011;6487;48.626;12.486;2023-08-24T14:17:38;4.80;;;3.70;;
12840;SDS011;6487;48.626;12.486;2023-08-24T14:20:07;6.30;;;3.63;;
12840;SDS011;6487;48.626;12.486;2023-08-24T14:22:39;5.93;;;3.40;;
12840;SDS011;6487;48.626;12.486;2023-08-24T14:25:07;4.55;;;3.70;;
12840;SDS011;6487;48.626;12.486;2023-08-24T14:27:36;5.03;;;3.72;;
12840;SDS011;6487;48.626;12.486;2023-08-24T14:30:12;3.78;;;3.38;;
12840;SDS011;6487;48.626;12.486;2023-08-24T14:32:40;5.57;;;3.15;;
12840;SDS011;6487;48.626;12.486;2023-08-24T14:35:09;6.13;;;3.88;;
12840;SDS011;6487;48.626;12.486;2023-08-24T14:37:38;5.45;;;3.60;;
12840;SDS011;6487;48.626;12.486;2023-08-24T14:40:07;5.20;;;4.07;;
12840;SDS011;6487;48.626;12.486;2023-08-24T14:42:37;8.38;;;3.70;;
12840;SDS011;6487;48.626;12.486;2023-08-24T14:45:06;6.25;;;3.90;;
12840;SDS011;6487;48.626;12.486;2023-08-24T14:47:36;6.22;;;3.80;;
12840;SDS011;6487;48.626;12.486;2023-08-24T14:50:05;6.72;;;3.50;;
12840;SDS011;6487;48.626;12.486;2023-08-24T14:52:36;5.53;;;3.40;;
12840;SDS011;6487;48.626;12.486;2023-08-24T14:55:06;10.10;;;3.92;;
12840;SDS011;6487;48.626;12.486;2023-08-24T14:57:36;6.28;;;3.45;;
12840;SDS011;6487;48.626;12.486;2023-08-24T15:00:05;5.55;;;3.50;;
12840;SDS011;6487;48.626;12.486;2023-08-24T15:02:38;5.03;;;3.33;;
12840;SDS011;6487;48.626;12.486;2023-08-24T15:05:08;5.40;;;3.55;;
12840;SDS011;6487;48.626;12.486;2023-08-24T15:07:36;4.18;;;3.78;;